Time;durP1;ratioP1;P1;durP2;ratioP2;P2;SDS_P1;SDS_P2;PMS_P1;PMS_P2;Temp;Humidity;BMP_temperature;BMP_pressure;BME280_temperature;BME280_humidity;BME280_pressure;Samples;Min_cycle;Max_cycle;Signal;HPM_P1;HPM_P2
2022/07/04 00:01:37;;;;;;;2.97;1.23;;;19.40;49.40;;;;;;4986623;28;20054;-56
2022/07/04 00:04:04;;;;;;;5.45;1.55;;;19.40;49.40;;;;;;4988739;28;20058;-56
2022/07/04 00:06:32;;;;;;;2.13;1.00;;;19.30;49.50;;;;;;4988520;28;20065;-56
2022/07/04 00:09:00;;;;;;;2.75;1.20;;;19.30;49.60;;;;;;4989850;28;20058;-54
2022/07/04 00:11:28;;;;;;;2.30;0.95;;;19.20;49.60;;;;;;4987355;28;20062;-55
2022/07/04 00:13:55;;;;;;;3.88;1.48;;;19.20;49.50;;;;;;4989098;28;20057;-55
2022/07/04 00:16:23;;;;;;;4.03;1.10;;;19.20;49.60;;;;;;4988609;28;20379;-56
2022/07/04 00:18:50;;;;;;;3.17;1.27;;;19.20;49.70;;;;;;4988469;28;20387;-58
2022/07/04 00:21:18;;;;;;;5.88;1.23;;;19.20;49.90;;;;;;4988622;28;20046;-57
2022/07/04 00:23:45;;;;;;;4.78;1.23;;;19.20;49.80;;;;;;4988691;28;20066;-58
2022/07/04 00:26:14;;;;;;;1.75;0.98;;;19.10;49.90;;;;;;4988455;28;20051;-55
2022/07/04 00:28:41;;;;;;;5.10;1.40;;;19.10;49.90;;;;;;4989111;28;20073;-58
2022/07/04 00:31:09;;;;;;;4.53;1.42;;;19.10;50.00;;;;;;4986443;28;20426;-57
2022/07/04 00:33:36;;;;;;;4.28;1.35;;;19.10;50.00;;;;;;4988583;28;20058;-57
2022/07/04 00:36:04;;;;;;;4.95;1.33;;;19.00;50.10;;;;;;4988699;28;20050;-53
2022/07/04 00:38:32;;;;;;;2.55;1.20;;;19.00;50.10;;;;;;4986202;28;20615;-58
2022/07/04 00:40:59;;;;;;;4.78;1.25;;;19.00;50.20;;;;;;4984436;28;20054;-57
2022/07/04 00:43:29;;;;;;;2.38;1.33;;;19.00;50.30;;;;;;4985507;28;20058;-56
2022/07/04 00:45:57;;;;;;;2.95;1.10;;;18.90;50.30;;;;;;4984669;28;20058;-56
2022/07/04 00:48:25;;;;;;;2.80;1.17;;;18.90;50.30;;;;;;4985570;28;20058;-56
2022/07/04 00:50:52;;;;;;;2.63;1.13;;;18.90;50.40;;;;;;4983209;28;20062;-58
2022/07/04 00:53:23;;;;;;;4.90;1.65;;;18.90;50.20;;;;;;4985742;28;20059;-58
2022/07/04 00:55:51;;;;;;;4.78;1.20;;;18.80;50.30;;;;;;4985949;28;20490;-54
2022/07/04 00:58:22;;;;;;;6.82;2.20;;;18.80;50.20;;;;;;4984981;28;21987;-54
2022/07/04 01:00:51;;;;;;;4.10;1.30;;;18.80;50.30;;;;;;4983278;28;20057;-55
2022/07/04 01:03:19;;;;;;;3.53;1.30;;;18.80;50.30;;;;;;4985513;28;20058;-58
2022/07/04 01:05:46;;;;;;;5.22;1.52;;;18.80;50.20;;;;;;4984756;28;20061;-58
2022/07/04 01:08:14;;;;;;;3.42;1.33;;;18.70;50.20;;;;;;4984856;28;20502;-55
2022/07/04 01:10:41;;;;;;;1.45;1.00;;;18.80;50.70;;;;;;4984350;28;20513;-57
2022/07/04 01:13:09;;;;;;;4.75;1.30;;;18.70;50.20;;;;;;4983718;28;20057;-56
2022/07/04 01:15:36;;;;;;;2.95;0.98;;;18.80;50.20;;;;;;4983934;28;20054;-55
2022/07/04 01:18:05;;;;;;;3.33;1.20;;;18.80;50.30;;;;;;4984347;28;20062;-56
2022/07/04 01:20:37;;;;;;;7.20;1.15;;;18.80;50.30;;;;;;4983927;28;20076;-57
2022/07/04 01:23:05;;;;;;;4.10;1.30;;;18.80;50.20;;;;;;4985843;28;20065;-54
2022/07/04 01:25:33;;;;;;;2.72;1.25;;;18.80;50.20;;;;;;4985283;28;20054;-56
2022/07/04 01:28:01;;;;;;;4.05;1.50;;;18.80;50.30;;;;;;4984644;28;20061;-55
2022/07/04 01:30:29;;;;;;;3.05;1.27;;;18.80;50.30;;;;;;4982942;28;20065;-56
2022/07/04 01:32:57;;;;;;;7.25;1.58;;;18.80;50.30;;;;;;4983809;28;20058;-56
2022/07/04 01:35:24;;;;;;;3.28;1.20;;;18.80;50.40;;;;;;4985306;28;20077;-55
2022/07/04 01:37:53;;;;;;;4.03;1.52;;;18.80;50.30;;;;;;4983071;28;20089;-58
2022/07/04 01:40:21;;;;;;;3.67;1.40;;;18.80;50.30;;;;;;4981745;28;20411;-55
2022/07/04 01:42:49;;;;;;;4.50;1.30;;;18.70;50.30;;;;;;4982864;28;21025;-53
2022/07/04 01:45:17;;;;;;;3.45;1.10;;;18.80;50.50;;;;;;4984649;28;20514;-56
2022/07/04 01:47:44;;;;;;;5.90;1.33;;;18.80;50.50;;;;;;4983965;28;20490;-58
2022/07/04 01:50:13;;;;;;;3.17;1.10;;;18.80;50.60;;;;;;4984222;28;20536;-56
2022/07/04 01:52:41;;;;;;;2.92;1.00;;;18.80;50.60;;;;;;4984309;28;20081;-56
2022/07/04 01:55:12;;;;;;;2.15;1.02;;;18.80;50.60;;;;;;4984210;28;20053;-58
2022/07/04 01:57:40;;;;;;;3.20;1.10;;;18.80;50.70;;;;;;4984042;28;20054;-53
2022/07/04 02:02:54;;;;;;;3.00;1.08;;;18.80;50.80;;;;;;4988727;28;20509;-55
2022/07/04 02:05:22;;;;;;;2.55;0.90;;;18.80;50.70;;;;;;4983575;28;20506;-57
2022/07/04 02:07:49;;;;;;;2.38;1.10;;;18.80;50.80;;;;;;4984544;28;20046;-55
2022/07/04 02:10:19;;;;;;;4.47;1.50;;;18.80;50.80;;;;;;4982958;28;20054;-56
2022/07/04 02:13:01;;;;;;;3.22;1.30;;;18.70;50.90;;;;;;4982378;28;20050;-56
2022/07/04 02:15:29;;;;;;;3.50;1.23;;;18.80;50.90;;;;;;4984060;28;20046;-59
2022/07/04 02:17:57;;;;;;;1.80;1.00;;;18.80;50.90;;;;;;4985018;28;20506;-56
2022/07/04 02:20:25;;;;;;;4.90;1.40;;;18.70;50.90;;;;;;4984471;28;20058;-54
2022/07/04 02:22:53;;;;;;;2.92;1.17;;;18.70;51.00;;;;;;4984244;28;20058;-59
2022/07/04 02:25:22;;;;;;;2.63;1.15;;;18.70;51.00;;;;;;4984899;28;20058;-56
2022/07/04 02:27:49;;;;;;;2.85;1.23;;;18.70;51.00;;;;;;4984309;28;20054;-56
2022/07/04 02:30:17;;;;;;;2.30;1.25;;;18.70;51.10;;;;;;4983700;28;20065;-59
2022/07/04 02:32:45;;;;;;;2.20;1.00;;;18.60;51.10;;;;;;4983584;28;20062;-58
2022/07/04 02:35:13;;;;;;;2.63;1.00;;;18.60;51.20;;;;;;4984171;28;20064;-58
2022/07/04 02:37:40;;;;;;;2.35;1.02;;;18.60;51.30;;;;;;4984852;28;20509;-57
2022/07/04 02:40:10;;;;;;;3.88;1.10;;;18.60;51.30;;;;;;4984024;28;20050;-58
2022/07/04 02:42:39;;;;;;;4.75;1.25;;;18.60;51.30;;;;;;4982850;28;20058;-56
2022/07/04 02:45:08;;;;;;;3.97;1.08;;;18.60;51.30;;;;;;4983756;28;20054;-56
2022/07/04 02:47:38;;;;;;;2.88;1.13;;;18.60;51.40;;;;;;4982853;28;20469;-56
2022/07/04 02:50:06;;;;;;;3.83;1.33;;;18.50;51.30;;;;;;4985130;28;20417;-59
2022/07/04 02:52:34;;;;;;;4.05;1.48;;;18.60;51.50;;;;;;4982803;28;20046;-56
2022/07/04 02:55:01;;;;;;;1.80;1.10;;;18.50;51.60;;;;;;4983122;28;20050;-57
2022/07/04 02:57:29;;;;;;;2.35;1.30;;;18.50;51.70;;;;;;4983716;28;20054;-56
2022/07/04 02:59:58;;;;;;;5.60;1.25;;;18.40;51.70;;;;;;4983320;28;20142;-56
2022/07/04 03:02:25;;;;;;;3.20;1.00;;;18.40;51.70;;;;;;5004993;28;20065;-59
2022/07/04 03:04:53;;;;;;;4.50;0.98;;;18.40;51.70;;;;;;4993329;28;20057;-55
2022/07/04 03:07:20;;;;;;;3.60;1.02;;;18.30;51.70;;;;;;5006466;28;20046;-55
2022/07/04 03:09:48;;;;;;;2.97;1.10;;;18.30;51.80;;;;;;5001768;28;20048;-57
2022/07/04 03:12:15;;;;;;;3.83;1.27;;;18.30;52.00;;;;;;5002321;28;20057;-59
2022/07/04 03:14:42;;;;;;;2.70;1.00;;;18.30;52.00;;;;;;5002252;28;20050;-58
2022/07/04 03:17:11;;;;;;;4.03;1.25;;;18.30;51.90;;;;;;5001782;28;20061;-59
2022/07/04 03:19:39;;;;;;;4.28;1.40;;;18.20;51.80;;;;;;5003205;28;20049;-56
2022/07/04 03:22:06;;;;;;;2.58;1.40;;;18.20;51.70;;;;;;5001543;28;20061;-58
2022/07/04 03:24:34;;;;;;;5.15;1.15;;;18.20;52.20;;;;;;5001320;28;20054;-58
2022/07/04 03:27:01;;;;;;;2.08;1.05;;;18.20;51.60;;;;;;5000058;28;20061;-53
2022/07/04 03:29:29;;;;;;;2.80;0.90;;;18.20;51.60;;;;;;4993951;28;20060;-55
2022/07/04 03:31:56;;;;;;;2.55;0.85;;;18.20;51.70;;;;;;4998943;28;20405;-57
2022/07/04 03:34:25;;;;;;;1.98;1.30;;;18.10;51.70;;;;;;5002054;28;20062;-55
2022/07/04 03:36:52;;;;;;;4.15;1.02;;;18.10;51.90;;;;;;5002822;28;20434;-58
2022/07/04 03:39:20;;;;;;;3.78;1.13;;;18.10;52.00;;;;;;5004055;28;20054;-55
2022/07/04 03:41:48;;;;;;;3.63;1.33;;;18.00;52.00;;;;;;5001286;28;20053;-57
2022/07/04 03:44:16;;;;;;;4.82;1.30;;;18.00;52.10;;;;;;5001753;28;20058;-55
2022/07/04 03:46:43;;;;;;;4.85;1.20;;;18.00;52.20;;;;;;5001967;28;20429;-56
2022/07/04 03:49:11;;;;;;;3.58;1.40;;;18.00;52.30;;;;;;5002936;28;20064;-56
2022/07/04 03:51:40;;;;;;;2.00;0.85;;;18.00;52.30;;;;;;5001232;28;20061;-56
2022/07/04 03:54:07;;;;;;;4.10;1.17;;;18.00;52.20;;;;;;5001679;28;20046;-55
2022/07/04 03:56:34;;;;;;;5.25;1.48;;;18.00;52.20;;;;;;5002792;28;20050;-56
2022/07/04 03:59:02;;;;;;;4.15;1.40;;;18.00;52.20;;;;;;5002831;28;20498;-53
2022/07/04 04:01:30;;;;;;;6.28;1.30;;;18.00;52.20;;;;;;5000912;28;20065;-56
2022/07/04 04:06:44;;;;;;;2.72;1.30;;;18.00;52.20;;;;;;5008799;28;20068;-57
2022/07/04 04:09:16;;;;;;;3.17;1.30;;;18.00;52.20;;;;;;5001234;28;20058;-55
2022/07/04 04:11:43;;;;;;;2.45;1.23;;;18.00;52.30;;;;;;5000709;28;20053;-55
2022/07/04 04:14:11;;;;;;;3.05;1.23;;;18.00;52.20;;;;;;5003547;28;20057;-59
2022/07/04 04:16:38;;;;;;;3.53;1.60;;;18.10;52.10;;;;;;5005630;28;20050;-55
2022/07/04 04:19:06;;;;;;;3.95;1.13;;;18.00;52.10;;;;;;5004740;28;20056;-56
2022/07/04 04:21:33;;;;;;;3.28;1.52;;;18.10;52.20;;;;;;5006694;28;20061;-58
2022/07/04 04:24:02;;;;;;;6.25;1.20;;;18.10;52.30;;;;;;5006097;28;20065;-57
2022/07/04 04:26:30;;;;;;;4.05;1.48;;;18.10;52.30;;;;;;5005628;28;20073;-58
2022/07/04 04:28:58;;;;;;;4.03;1.30;;;18.10;52.30;;;;;;5004511;28;20057;-56
2022/07/04 04:31:25;;;;;;;3.55;1.75;;;18.10;52.40;;;;;;5003459;28;20482;-58
2022/07/04 04:33:52;;;;;;;4.65;1.65;;;18.00;52.20;;;;;;5005248;28;20054;-57
2022/07/04 04:36:20;;;;;;;3.83;1.40;;;18.10;52.40;;;;;;5004491;28;20053;-59
2022/07/04 04:38:48;;;;;;;8.90;1.80;;;18.10;52.40;;;;;;5004883;28;20050;-56
2022/07/04 04:41:17;;;;;;;3.33;1.40;;;18.10;52.40;;;;;;5004526;28;20046;-58
2022/07/04 04:43:44;;;;;;;4.43;1.63;;;18.10;52.50;;;;;;5005333;28;20069;-57
2022/07/04 04:46:12;;;;;;;4.93;1.52;;;18.10;52.40;;;;;;5004879;28;20081;-54
2022/07/04 04:48:39;;;;;;;2.53;1.23;;;18.10;52.50;;;;;;5004678;28;20518;-56
2022/07/04 04:51:07;;;;;;;6.70;1.27;;;18.10;53.10;;;;;;5004420;28;20053;-59
2022/07/04 04:53:34;;;;;;;3.10;1.70;;;18.10;52.60;;;;;;5003823;28;20061;-59
2022/07/04 04:56:02;;;;;;;7.85;1.77;;;18.10;52.60;;;;;;5005509;28;20076;-56
2022/07/04 04:58:31;;;;;;;7.93;3.20;;;18.10;52.70;;;;;;5004069;28;20064;-56
2022/07/04 05:00:58;;;;;;;2.65;1.48;;;18.10;52.80;;;;;;5002205;28;20057;-57
2022/07/04 05:03:26;;;;;;;3.78;1.55;;;18.10;52.60;;;;;;5005761;28;20053;-59
2022/07/04 05:05:53;;;;;;;3.35;1.48;;;18.10;52.50;;;;;;5005105;28;20390;-59
2022/07/04 05:08:22;;;;;;;2.97;1.17;;;18.20;52.60;;;;;;5005809;28;20061;-57
2022/07/04 05:10:49;;;;;;;4.40;1.55;;;18.20;52.70;;;;;;5003775;28;20058;-58
2022/07/04 05:13:16;;;;;;;7.38;2.28;;;18.20;52.60;;;;;;5004383;28;20429;-59
2022/07/04 05:15:46;;;;;;;8.85;2.45;;;18.20;52.60;;;;;;5005938;28;20060;-57
2022/07/04 05:18:13;;;;;;;4.95;2.25;;;18.20;52.70;;;;;;5005476;28;20053;-53
2022/07/04 05:20:41;;;;;;;6.47;1.70;;;18.20;52.70;;;;;;5003237;28;20505;-55
2022/07/04 05:23:08;;;;;;;4.85;1.95;;;18.20;52.60;;;;;;5004487;28;20070;-57
2022/07/04 05:25:36;;;;;;;4.05;1.65;;;18.20;52.70;;;;;;5006452;28;20064;-57
2022/07/04 05:28:03;;;;;;;3.30;1.55;;;18.20;52.80;;;;;;5003934;28;20493;-59
2022/07/04 05:30:31;;;;;;;2.75;1.92;;;18.20;53.10;;;;;;5001378;28;20054;-57
2022/07/04 05:33:01;;;;;;;5.10;1.83;;;18.20;53.20;;;;;;5005274;28;20054;-56
2022/07/04 05:35:29;;;;;;;4.93;1.73;;;18.20;53.30;;;;;;5005377;28;20058;-56
2022/07/04 05:37:56;;;;;;;7.57;2.08;;;18.20;53.10;;;;;;5003399;28;21025;-56
2022/07/04 05:40:24;;;;;;;2.80;1.48;;;18.30;53.00;;;;;;5004016;28;20054;-57
2022/07/04 05:42:51;;;;;;;8.07;2.92;;;18.30;53.10;;;;;;5003366;28;20069;-53
2022/07/04 05:45:19;;;;;;;2.97;1.50;;;18.30;53.00;;;;;;5004429;28;20050;-54
2022/07/04 05:47:46;;;;;;;8.15;3.30;;;18.30;53.20;;;;;;5003683;28;20049;-55
2022/07/04 05:50:15;;;;;;;9.52;3.58;;;18.40;53.20;;;;;;5003377;28;20486;-58
2022/07/04 05:52:43;;;;;;;4.05;2.10;;;18.40;53.50;;;;;;5000446;28;20058;-57
2022/07/04 05:55:11;;;;;;;3.60;1.70;;;18.40;53.40;;;;;;5004292;28;20129;-57
2022/07/04 05:57:38;;;;;;;5.82;2.20;;;18.50;53.50;;;;;;5006307;28;20045;-57
2022/07/04 06:00:07;;;;;;;9.45;2.55;;;18.50;53.00;;;;;;5001416;28;20049;-55
2022/07/04 06:02:34;;;;;;;4.80;1.90;;;18.60;52.80;;;;;;5002786;28;20054;-57
2022/07/04 06:05:01;;;;;;;15.98;2.55;;;18.60;52.90;;;;;;5005006;28;20429;-59
2022/07/04 06:07:30;;;;;;;5.60;2.40;;;18.70;52.70;;;;;;5005262;28;20060;-56
2022/07/04 06:09:58;;;;;;;6.80;2.00;;;18.70;52.90;;;;;;5003400;28;20057;-56
2022/07/04 06:12:25;;;;;;;5.45;2.00;;;18.70;52.80;;;;;;5001826;28;20053;-59
2022/07/04 06:14:53;;;;;;;8.75;2.17;;;18.80;52.70;;;;;;5004180;28;20058;-56
2022/07/04 06:17:21;;;;;;;9.52;1.55;;;18.90;52.90;;;;;;5001582;28;20061;-58
2022/07/04 06:19:48;;;;;;;3.28;1.58;;;18.90;52.90;;;;;;5004528;28;20057;-59
2022/07/04 06:22:16;;;;;;;3.15;1.58;;;19.00;52.80;;;;;;5002327;28;20065;-57
2022/07/04 06:24:45;;;;;;;3.17;1.65;;;19.00;52.70;;;;;;5003602;28;20057;-58
2022/07/04 06:27:12;;;;;;;6.95;2.10;;;19.10;52.70;;;;;;5004138;28;20061;-58
2022/07/04 06:29:40;;;;;;;5.05;2.15;;;19.10;53.00;;;;;;5002969;28;20056;-58
2022/07/04 06:32:08;;;;;;;8.57;2.85;;;19.20;52.60;;;;;;5000513;28;20050;-59
2022/07/04 06:37:31;;;;;;;6.28;2.38;;;19.30;52.30;;;;;;4976876;28;20383;-56
2022/07/04 06:40:00;;;;;;;7.95;2.42;;;19.40;52.20;;;;;;4993337;28;20054;-58
2022/07/04 06:42:28;;;;;;;4.45;2.20;;;19.40;51.90;;;;;;5002099;28;20062;-53
2022/07/04 06:44:55;;;;;;;6.07;2.50;;;19.50;51.90;;;;;;5002695;28;20065;-54
2022/07/04 06:47:23;;;;;;;8.00;2.40;;;19.50;51.80;;;;;;5001988;28;20053;-56
2022/07/04 06:49:50;;;;;;;5.57;1.90;;;19.50;51.20;;;;;;5002172;28;20049;-58
2022/07/04 06:52:17;;;;;;;5.13;2.20;;;19.50;51.40;;;;;;5000524;28;20058;-59
2022/07/04 06:54:45;;;;;;;3.40;1.67;;;19.50;51.80;;;;;;5003517;28;20061;-56
2022/07/04 06:57:14;;;;;;;5.32;1.77;;;19.60;51.80;;;;;;5003296;28;20058;-56
2022/07/04 06:59:41;;;;;;;5.53;2.03;;;19.60;51.60;;;;;;5003065;28;20517;-55
2022/07/04 07:02:08;;;;;;;3.85;1.80;;;19.60;52.30;;;;;;5000826;28;20054;-56
2022/07/04 07:04:37;;;;;;;4.68;1.60;;;19.70;51.50;;;;;;5003580;28;20053;-54
2022/07/04 07:07:05;;;;;;;8.52;1.60;;;19.70;51.40;;;;;;5002800;28;20057;-55
2022/07/04 07:09:32;;;;;;;5.63;2.20;;;19.70;51.00;;;;;;5002556;28;20060;-58
2022/07/04 07:12:00;;;;;;;6.35;1.98;;;19.80;50.90;;;;;;4999085;28;20053;-57
2022/07/04 07:14:29;;;;;;;5.88;1.20;;;19.80;50.70;;;;;;5002955;28;20054;-55
2022/07/04 07:16:58;;;;;;;2.33;1.08;;;19.80;50.40;;;;;;5001091;28;20065;-55
2022/07/04 07:19:25;;;;;;;5.18;1.13;;;19.80;50.10;;;;;;5001918;28;20508;-53
2022/07/04 07:21:53;;;;;;;2.50;1.05;;;19.80;49.60;;;;;;5001708;28;20057;-56
2022/07/04 07:24:20;;;;;;;3.00;1.23;;;19.90;49.60;;;;;;5002711;28;20061;-57
2022/07/04 07:26:47;;;;;;;1.95;0.93;;;19.90;49.50;;;;;;5002502;28;20525;-58
2022/07/04 07:29:15;;;;;;;1.42;0.60;;;20.00;49.40;;;;;;5001256;28;20054;-58
2022/07/04 07:31:44;;;;;;;4.63;0.73;;;20.00;49.20;;;;;;4999827;28;20049;-59
2022/07/04 07:34:11;;;;;;;2.13;0.60;;;20.00;49.20;;;;;;5001292;28;20053;-58
2022/07/04 07:36:39;;;;;;;3.28;0.80;;;20.10;49.00;;;;;;5003616;28;20504;-59
2022/07/04 07:39:06;;;;;;;4.45;0.77;;;20.20;48.70;;;;;;5002517;28;20474;-57
2022/07/04 07:41:34;;;;;;;5.70;1.17;;;20.20;48.90;;;;;;5000965;28;20056;-52
2022/07/04 07:44:01;;;;;;;7.75;1.10;;;20.30;47.90;;;;;;5002321;28;20058;-54
2022/07/04 07:46:29;;;;;;;2.35;0.85;;;20.30;47.40;;;;;;5001098;28;20062;-57
2022/07/04 07:48:57;;;;;;;2.05;1.02;;;20.30;47.60;;;;;;5006685;28;20053;-54
2022/07/04 07:51:25;;;;;;;3.45;1.00;;;20.30;47.60;;;;;;5004092;28;20054;-57
2022/07/04 07:53:53;;;;;;;8.88;1.48;;;20.40;47.20;;;;;;5006435;28;20064;-57
2022/07/04 07:56:20;;;;;;;4.07;0.90;;;20.40;46.40;;;;;;5006104;28;20058;-56
2022/07/04 07:58:48;;;;;;;1.73;0.85;;;20.40;45.00;;;;;;5006404;28;20057;-57
2022/07/04 08:01:15;;;;;;;1.38;0.80;;;20.40;45.60;;;;;;5004878;28;20057;-59
2022/07/04 08:06:29;;;;;;;4.13;1.40;;;20.50;46.10;;;;;;5012406;28;20581;-53
2022/07/04 08:08:56;;;;;;;3.35;0.90;;;20.50;45.50;;;;;;5005977;28;20057;-54
2022/07/04 08:11:24;;;;;;;1.55;0.70;;;20.50;45.60;;;;;;5004187;28;20061;-53
2022/07/04 08:13:51;;;;;;;2.83;1.25;;;20.60;46.20;;;;;;5005387;28;20095;-53
2022/07/04 08:16:19;;;;;;;4.63;1.40;;;20.60;45.30;;;;;;5005754;28;20058;-55
2022/07/04 08:18:46;;;;;;;2.83;0.82;;;20.60;45.60;;;;;;5005300;28;20057;-58
2022/07/04 08:21:14;;;;;;;1.63;0.70;;;20.70;46.00;;;;;;5004455;28;20402;-56
2022/07/04 08:23:43;;;;;;;3.65;1.10;;;20.70;45.80;;;;;;5005227;28;20061;-54
2022/07/04 08:26:10;;;;;;;2.05;0.80;;;20.80;45.20;;;;;;5004814;28;20060;-56
2022/07/04 08:28:38;;;;;;;3.15;0.98;;;20.80;45.30;;;;;;5004251;28;20068;-58
2022/07/04 08:31:05;;;;;;;7.82;1.95;;;20.90;43.70;;;;;;5004046;28;20054;-57
2022/07/04 08:33:33;;;;;;;6.15;1.45;;;20.90;44.50;;;;;;5005165;28;20053;-53
2022/07/04 08:36:00;;;;;;;2.78;0.80;;;20.90;44.30;;;;;;5006690;28;20062;-59
2022/07/04 08:38:28;;;;;;;1.23;0.68;;;21.00;44.40;;;;;;5005632;28;20053;-56
2022/07/04 08:40:59;;;;;;;2.75;1.08;;;21.00;44.30;;;;;;5004463;28;20049;-54
2022/07/04 08:43:28;;;;;;;4.07;1.08;;;21.10;44.80;;;;;;5003475;28;20402;-56
2022/07/04 08:45:56;;;;;;;4.78;1.10;;;21.10;44.90;;;;;;5004287;28;20073;-57
2022/07/04 08:48:26;;;;;;;3.83;1.50;;;21.20;44.00;;;;;;5005345;28;20402;-57
2022/07/04 08:50:57;;;;;;;6.13;1.27;;;21.20;44.00;;;;;;5003363;28;20053;-55
2022/07/04 08:53:29;;;;;;;3.40;1.17;;;21.20;44.00;;;;;;5005099;28;20057;-58
2022/07/04 08:58:44;;;;;;;4.22;1.55;;;21.30;44.00;;;;;;5009434;28;20706;-57
2022/07/04 09:01:14;;;;;;;2.35;0.70;;;21.30;43.10;;;;;;5003634;28;20052;-59
2022/07/04 09:03:43;;;;;;;3.13;0.98;;;21.30;43.90;;;;;;5005984;28;20409;-58
2022/07/04 09:06:11;;;;;;;1.85;1.00;;;21.40;44.10;;;;;;5006173;28;20402;-59
2022/07/04 09:08:39;;;;;;;3.30;1.15;;;21.50;43.80;;;;;;5006668;28;20417;-59
2022/07/04 09:11:08;;;;;;;1.60;0.70;;;21.60;44.20;;;;;;5005454;28;20538;-57
2022/07/04 09:13:36;;;;;;;7.38;1.13;;;21.60;43.70;;;;;;5004216;28;20060;-55
2022/07/04 09:16:04;;;;;;;8.38;1.67;;;21.60;43.10;;;;;;5003666;28;20061;-55
2022/07/04 09:18:33;;;;;;;4.53;1.25;;;21.60;43.10;;;;;;5005322;28;20090;-56
2022/07/04 09:21:03;;;;;;;7.32;1.10;;;21.60;42.70;;;;;;5003582;28;20053;-54
2022/07/04 09:23:32;;;;;;;1.95;0.77;;;21.60;43.20;;;;;;5002664;28;20049;-54
2022/07/04 09:26:14;;;;;;;16.20;1.08;;;21.60;41.90;;;;;;5004472;28;20101;-56
2022/07/04 09:28:43;;;;;;;5.38;1.00;;;21.60;42.80;;;;;;5005562;28;20059;-57
2022/07/04 09:31:15;;;;;;;1.02;0.70;;;21.70;43.20;;;;;;5003319;28;20057;-59
2022/07/04 09:33:49;;;;;;;2.45;0.90;;;21.70;43.40;;;;;;5005016;28;20494;-58
2022/07/04 09:36:18;;;;;;;1.20;0.70;;;21.80;41.70;;;;;;5004767;28;20053;-59
2022/07/04 09:38:46;;;;;;;2.53;0.70;;;21.80;42.00;;;;;;5002286;28;20061;-57
2022/07/04 09:41:29;;;;;;;4.45;1.17;;;21.80;42.60;;;;;;5002960;28;20050;-56
2022/07/04 09:44:05;;;;;;;3.10;0.75;;;21.90;41.50;;;;;;5004721;28;20054;-56
2022/07/04 09:46:33;;;;;;;6.47;1.30;;;22.00;42.30;;;;;;5004053;28;20448;-56
2022/07/04 09:49:01;;;;;;;1.55;0.70;;;22.00;42.40;;;;;;5004093;28;20050;-58
2022/07/04 09:51:42;;;;;;;3.42;0.93;;;22.10;42.00;;;;;;5003103;28;20050;-55
2022/07/04 09:54:18;;;;;;;3.90;1.10;;;22.10;41.50;;;;;;5003539;28;20054;-59
2022/07/04 09:56:48;;;;;;;10.05;0.95;;;22.20;41.50;;;;;;5005070;28;20050;-54
2022/07/04 09:59:16;;;;;;;2.55;0.80;;;22.30;41.30;;;;;;5004736;28;20057;-57
2022/07/04 10:01:43;;;;;;;1.10;0.50;;;22.30;41.80;;;;;;5001625;28;20508;-59
2022/07/04 10:04:13;;;;;;;2.63;0.60;;;22.40;41.60;;;;;;5006197;28;20049;-55
2022/07/04 10:06:42;;;;;;;2.30;0.80;;;22.40;40.60;;;;;;5005115;28;20054;-55
2022/07/04 10:09:12;;;;;;;2.25;0.70;;;22.40;41.20;;;;;;5005239;28;20057;-55
2022/07/04 10:11:41;;;;;;;2.10;0.50;;;22.50;41.50;;;;;;5003162;28;20414;-55
2022/07/04 10:14:12;;;;;;;2.95;0.70;;;22.50;39.50;;;;;;5003441;28;20417;-56
2022/07/04 10:16:40;;;;;;;4.78;0.65;;;22.50;38.40;;;;;;5004697;28;20073;-54
2022/07/04 10:19:09;;;;;;;4.03;0.75;;;22.60;39.40;;;;;;5004709;28;20418;-56
2022/07/04 10:21:37;;;;;;;1.27;0.60;;;22.60;39.70;;;;;;5004041;28;20045;-56
2022/07/04 10:24:05;;;;;;;2.25;0.65;;;22.70;39.90;;;;;;5005175;28;20057;-56
2022/07/04 10:26:32;;;;;;;1.58;0.63;;;22.70;39.70;;;;;;5004208;28;20502;-60
2022/07/04 10:29:00;;;;;;;2.33;0.60;;;22.80;39.90;;;;;;5003625;28;20497;-58
2022/07/04 10:31:31;;;;;;;2.65;0.75;;;22.80;38.80;;;;;;5001537;28;20508;-60
2022/07/04 10:34:00;;;;;;;3.20;0.77;;;22.90;39.40;;;;;;5004090;28;20060;-58
2022/07/04 10:36:29;;;;;;;2.38;0.68;;;22.90;39.70;;;;;;5005016;28;20049;-59
2022/07/04 10:38:59;;;;;;;1.73;0.63;;;23.00;39.00;;;;;;5002590;28;20065;-56
2022/07/04 10:41:28;;;;;;;1.85;0.43;;;23.00;37.70;;;;;;5000155;28;20054;-57
2022/07/04 10:44:06;;;;;;;1.95;0.60;;;23.00;38.50;;;;;;5002350;28;20060;-57
2022/07/04 10:46:49;;;;;;;5.13;0.85;;;23.00;37.60;;;;;;5002769;28;20057;-57
2022/07/04 10:49:25;;;;;;;1.67;0.57;;;23.10;38.10;;;;;;5002758;28;20054;-52
2022/07/04 10:51:54;;;;;;;1.65;0.40;;;23.10;37.00;;;;;;5002843;28;20061;-53
2022/07/04 10:54:29;;;;;;;1.90;0.50;;;23.10;37.20;;;;;;5003832;28;20500;-55
2022/07/04 10:56:57;;;;;;;3.08;0.68;;;23.10;37.00;;;;;;5003182;28;20053;-58
2022/07/04 10:59:27;;;;;;;3.50;0.57;;;23.10;37.20;;;;;;5002159;28;20054;-57
2022/07/04 11:02:30;;;;;;;2.70;0.77;;;23.10;36.80;;;;;;5000592;28;20054;-56
2022/07/04 11:05:02;;;;;;;1.98;0.80;;;23.10;37.20;;;;;;4922737;28;20055;-54
2022/07/04 11:07:58;;;;;;;2.10;0.70;;;23.10;37.20;;;;;;4922657;28;20083;-59
2022/07/04 11:10:26;;;;;;;4.15;0.90;;;23.10;38.70;;;;;;4975399;28;20057;-58
2022/07/04 11:13:17;;;;;;;2.78;0.88;;;23.10;36.90;;;;;;5001660;28;20056;-54
2022/07/04 11:16:07;;;;;;;2.58;0.70;;;23.20;37.50;;;;;;4998021;28;20053;-58
2022/07/04 11:18:44;;;;;;;3.00;0.70;;;23.20;37.10;;;;;;5002795;28;20052;-55
2022/07/04 11:21:19;;;;;;;2.60;0.98;;;23.20;37.10;;;;;;4996476;28;20072;-56
2022/07/04 11:23:54;;;;;;;2.15;0.73;;;23.30;37.50;;;;;;5001921;28;20053;-54
2022/07/04 11:26:23;;;;;;;1.77;0.77;;;23.30;38.30;;;;;;5004025;28;20644;-61
2022/07/04 11:28:51;;;;;;;3.25;0.57;;;23.40;38.30;;;;;;4999564;28;20080;-57
2022/07/04 11:31:18;;;;;;;2.03;0.50;;;23.40;38.50;;;;;;4998978;28;20058;-58
2022/07/04 11:33:48;;;;;;;1.77;0.68;;;23.50;38.40;;;;;;5001081;28;20485;-60
2022/07/04 11:36:20;;;;;;;3.10;0.75;;;23.50;38.60;;;;;;5001286;28;20061;-55
2022/07/04 11:38:56;;;;;;;4.10;0.60;;;23.50;36.80;;;;;;5001797;28;20061;-55
2022/07/04 11:47:15;;;;;;;3.30;0.75;;;23.70;37.50;;;;;;4942928;28;20533;-54
2022/07/04 11:49:46;;;;;;;1.45;0.50;;;23.80;38.30;;;;;;4975981;28;20056;-55
2022/07/04 11:52:15;;;;;;;2.08;0.80;;;23.80;37.30;;;;;;4999020;28;20504;-56
2022/07/04 11:54:43;;;;;;;1.67;0.60;;;23.90;36.40;;;;;;5004657;28;20049;-60
2022/07/04 11:57:16;;;;;;;1.70;0.45;;;23.90;36.60;;;;;;5004141;28;20058;-58
2022/07/04 11:59:51;;;;;;;2.60;0.80;;;24.00;37.10;;;;;;5001138;28;20057;-51
2022/07/04 12:02:20;;;;;;;0.98;0.30;;;24.00;37.30;;;;;;4998975;28;20053;-53
2022/07/04 12:04:49;;;;;;;1.83;0.50;;;24.10;37.40;;;;;;5004403;28;20413;-56
2022/07/04 12:07:20;;;;;;;1.67;0.65;;;24.10;37.40;;;;;;5002980;28;20058;-55
2022/07/04 12:09:49;;;;;;;3.00;0.80;;;24.20;37.80;;;;;;5002387;28;20054;-56
2022/07/04 12:12:17;;;;;;;2.38;0.70;;;24.20;35.60;;;;;;5000814;28;20045;-59
2022/07/04 12:15:06;;;;;;;2.35;0.85;;;24.20;37.30;;;;;;5001865;28;20418;-55
2022/07/04 12:17:36;;;;;;;1.83;0.65;;;24.30;35.50;;;;;;4992277;28;20049;-55
2022/07/04 12:20:13;;;;;;;3.33;0.90;;;24.30;36.70;;;;;;4999702;28;20058;-58
2022/07/04 12:22:42;;;;;;;1.38;0.55;;;24.40;36.70;;;;;;5000648;28;20233;-60
2022/07/04 12:25:22;;;;;;;2.50;0.60;;;24.50;36.90;;;;;;5003071;28;20061;-59
2022/07/04 12:27:54;;;;;;;1.25;0.60;;;24.50;36.40;;;;;;5001618;28;20410;-62
2022/07/04 12:30:22;;;;;;;1.75;0.52;;;24.60;36.30;;;;;;5002135;28;20081;-59
2022/07/04 12:32:54;;;;;;;3.67;0.52;;;24.70;36.40;;;;;;4998689;28;20053;-57
2022/07/04 12:35:47;;;;;;;1.23;0.50;;;24.70;37.80;;;;;;5004805;28;20058;-61
2022/07/04 12:38:16;;;;;;;2.30;0.77;;;24.80;36.40;;;;;;4990766;28;20060;-60
2022/07/04 12:40:52;;;;;;;3.35;0.82;;;24.90;36.70;;;;;;5003877;28;20061;-55
2022/07/04 12:43:21;;;;;;;2.15;0.75;;;25.00;37.20;;;;;;5004503;28;20065;-51
2022/07/04 12:45:50;;;;;;;2.13;0.50;;;25.00;36.40;;;;;;5003255;28;20054;-54
2022/07/04 12:48:24;;;;;;;2.85;0.70;;;25.00;35.30;;;;;;5002378;28;20502;-58
2022/07/04 12:50:54;;;;;;;0.80;0.50;;;25.10;35.40;;;;;;5003555;28;20131;-57
2022/07/04 12:53:22;;;;;;;3.28;0.85;;;25.10;35.10;;;;;;5004621;28;20053;-54
2022/07/04 12:55:51;;;;;;;1.85;0.70;;;25.00;34.40;;;;;;5006253;28;20053;-56
2022/07/04 12:58:18;;;;;;;1.50;0.80;;;25.00;34.00;;;;;;5004480;28;20053;-59
2022/07/04 13:00:45;;;;;;;1.20;0.60;;;24.90;34.90;;;;;;5001097;28;20509;-60
2022/07/04 13:03:13;;;;;;;2.28;0.57;;;24.80;34.90;;;;;;5002298;28;20053;-60
2022/07/04 13:05:41;;;;;;;2.35;0.60;;;24.80;35.50;;;;;;5005650;28;20058;-57
2022/07/04 13:08:11;;;;;;;2.63;0.80;;;24.80;34.90;;;;;;5005325;28;20058;-57
2022/07/04 13:10:39;;;;;;;4.20;0.60;;;24.70;34.60;;;;;;5004627;28;20058;-54
2022/07/04 13:13:08;;;;;;;2.63;0.77;;;24.70;35.40;;;;;;5004440;28;20050;-53
2022/07/04 13:15:35;;;;;;;3.20;0.93;;;24.80;35.80;;;;;;5003744;28;20402;-57